createdAt,value
2016-10-23T00:00:14.044Z,0
2016-10-23T00:01:14.060Z,0
2016-10-23T00:02:14.081Z,0
2016-10-23T00:03:14.164Z,0
2016-10-23T00:04:14.214Z,0
2016-10-23T00:05:14.266Z,0
2016-10-23T00:06:14.318Z,0
2016-10-23T00:07:14.367Z,0
2016-10-23T00:08:14.411Z,0
2016-10-23T00:09:14.489Z,0
2016-10-23T00:10:14.556Z,0
2016-10-23T00:11:14.577Z,0
2016-10-23T00:12:14.657Z,0
2016-10-23T00:13:14.708Z,0
2016-10-23T00:14:14.769Z,0
2016-10-23T00:15:14.821Z,0
2016-10-23T00:16:14.897Z,0
2016-10-23T00:17:14.929Z,0
2016-10-23T00:18:14.995Z,0
2016-10-23T00:19:15.041Z,0
2016-10-23T00:20:15.081Z,0
2016-10-23T00:21:15.141Z,0
2016-10-23T00:22:15.187Z,0
2016-10-23T00:23:15.267Z,0
2016-10-23T00:24:15.322Z,0
2016-10-23T00:25:15.368Z,0
2016-10-23T00:26:15.439Z,0
2016-10-23T00:27:15.480Z,0
2016-10-23T00:28:15.535Z,0
2016-10-23T00:29:15.604Z,0
2016-10-23T00:30:15.653Z,0
2016-10-23T00:31:15.701Z,0
2016-10-23T00:32:15.769Z,0
2016-10-23T00:33:15.799Z,0
2016-10-23T00:34:15.868Z,0
2016-10-23T00:35:16.030Z,0
2016-10-23T00:36:15.975Z,0
2016-10-23T00:37:16.011Z,0
2016-10-23T00:38:16.082Z,0
2016-10-23T00:39:16.122Z,0
2016-10-23T00:40:16.198Z,0
2016-10-23T00:41:16.262Z,0
2016-10-23T00:42:16.292Z,0
2016-10-23T00:43:16.368Z,0
2016-10-23T00:44:16.410Z,0
2016-10-23T00:45:16.495Z,0
2016-10-23T00:46:16.533Z,0
2016-10-23T00:47:16.599Z,0
2016-10-23T00:48:16.652Z,0
2016-10-23T00:49:16.707Z,0
2016-10-23T00:50:16.751Z,0
2016-10-23T00:51:16.797Z,0
2016-10-23T00:52:16.839Z,0
2016-10-23T00:53:16.921Z,0
2016-10-23T00:54:16.948Z,0
2016-10-23T00:55:17.002Z,0
2016-10-23T00:56:17.075Z,0
2016-10-23T00:57:17.115Z,0
2016-10-23T00:58:17.203Z,0
2016-10-23T00:59:17.254Z,0
2016-10-23T01:00:17.297Z,0
2016-10-23T01:01:17.362Z,0
2016-10-23T01:02:17.406Z,0
2016-10-23T01:03:17.460Z,0
2016-10-23T01:04:17.532Z,0
2016-10-23T01:05:17.564Z,0
2016-10-23T01:06:17.616Z,0
2016-10-23T01:07:17.703Z,0
2016-10-23T01:08:17.730Z,0
2016-10-23T01:09:17.795Z,0
2016-10-23T01:10:17.859Z,0
2016-10-23T01:11:17.908Z,0
2016-10-23T01:12:17.979Z,0
2016-10-23T01:13:18.055Z,0
2016-10-23T01:14:18.080Z,0
2016-10-23T01:15:18.127Z,0
2016-10-23T01:16:18.160Z,0
2016-10-23T01:17:18.220Z,0
2016-10-23T01:18:18.275Z,0
2016-10-23T01:19:18.345Z,0
2016-10-23T01:20:18.408Z,0
2016-10-23T01:21:18.471Z,0
2016-10-23T01:22:18.505Z,0
2016-10-23T01:23:18.599Z,0
2016-10-23T01:24:18.635Z,0
2016-10-23T01:25:18.682Z,0
2016-10-23T01:26:18.731Z,0
2016-10-23T01:27:18.782Z,0
2016-10-23T01:28:18.832Z,0
2016-10-23T01:29:18.886Z,0
2016-10-23T01:30:18.970Z,0
2016-10-23T01:31:19.027Z,0
2016-10-23T01:32:19.050Z,0
2016-10-23T01:33:19.116Z,0
2016-10-23T01:34:19.164Z,0
2016-10-23T01:35:19.229Z,0
2016-10-23T01:36:19.288Z,0
2016-10-23T01:37:19.353Z,0
2016-10-23T01:38:19.386Z,0
2016-10-23T01:39:19.450Z,0
2016-10-23T01:40:19.500Z,0
2016-10-23T01:41:19.569Z,0
2016-10-23T01:42:19.845Z,0
2016-10-23T01:43:19.673Z,0
2016-10-23T01:44:19.739Z,0
2016-10-23T01:45:19.788Z,0
2016-10-23T01:46:19.848Z,0
2016-10-23T01:47:19.895Z,0
2016-10-23T01:48:19.943Z,0
2016-10-23T01:49:20.011Z,0
2016-10-23T01:50:20.060Z,0
2016-10-23T01:51:20.097Z,0
2016-10-23T01:52:20.179Z,0
2016-10-23T01:53:20.205Z,0
2016-10-23T01:54:20.277Z,0
2016-10-23T01:55:20.316Z,0
2016-10-23T01:56:20.394Z,0
2016-10-23T01:57:20.450Z,0
2016-10-23T01:58:20.493Z,0
2016-10-23T01:59:20.540Z,0
2016-10-23T02:00:20.592Z,0
2016-10-23T02:01:20.646Z,0
2016-10-23T02:02:20.727Z,0
2016-10-23T02:03:20.766Z,0
2016-10-23T02:04:20.820Z,0
2016-10-23T02:05:20.881Z,0
2016-10-23T02:06:20.961Z,0
2016-10-23T02:07:21.007Z,0
2016-10-23T02:08:21.068Z,0
2016-10-23T02:09:21.146Z,0
2016-10-23T02:10:21.162Z,0
2016-10-23T02:11:21.214Z,0
2016-10-23T02:12:21.288Z,0
2016-10-23T02:13:21.325Z,0
2016-10-23T02:14:21.392Z,0
2016-10-23T02:15:21.439Z,0
2016-10-23T02:16:21.491Z,0
2016-10-23T02:17:21.556Z,0
2016-10-23T02:18:21.627Z,0
2016-10-23T02:19:21.661Z,0
2016-10-23T02:20:21.742Z,0
2016-10-23T02:21:21.797Z,0
2016-10-23T02:22:21.804Z,0
2016-10-23T02:23:21.866Z,0
2016-10-23T02:24:22.277Z,0
2016-10-23T02:25:21.978Z,0
2016-10-23T02:26:22.046Z,0
2016-10-23T02:27:22.078Z,0
2016-10-23T02:28:22.155Z,0
2016-10-23T02:29:22.227Z,0
2016-10-23T02:30:22.268Z,0
2016-10-23T02:31:22.319Z,0
2016-10-23T02:32:22.369Z,0
2016-10-23T02:33:22.424Z,0
2016-10-23T02:34:22.676Z,0
2016-10-23T02:35:22.539Z,0
2016-10-23T02:36:22.609Z,0
2016-10-23T02:37:22.652Z,0
2016-10-23T02:38:22.701Z,0
2016-10-23T02:39:22.924Z,0
2016-10-23T02:40:22.826Z,0
2016-10-23T02:41:22.858Z,0
2016-10-23T02:42:22.929Z,0
2016-10-23T02:43:23.014Z,0
2016-10-23T02:44:23.017Z,0
2016-10-23T02:45:23.072Z,0
2016-10-23T02:46:23.134Z,0
2016-10-23T02:47:23.205Z,0
2016-10-23T02:48:23.251Z,0
2016-10-23T02:49:23.329Z,0
2016-10-23T02:50:23.456Z,0
2016-10-23T02:51:23.420Z,0
2016-10-23T02:52:23.494Z,0
2016-10-23T02:53:23.528Z,0
2016-10-23T02:54:23.589Z,0
2016-10-23T02:55:23.648Z,0
2016-10-23T02:56:23.703Z,0
2016-10-23T02:57:23.746Z,0
2016-10-23T02:58:23.789Z,0
2016-10-23T02:59:23.858Z,0
2016-10-23T03:00:23.928Z,0
2016-10-23T03:01:23.986Z,0
2016-10-23T03:02:24.011Z,0
2016-10-23T03:03:24.081Z,0
2016-10-23T03:04:24.128Z,0
2016-10-23T03:05:24.376Z,0
2016-10-23T03:06:24.252Z,0
2016-10-23T03:07:24.300Z,0
2016-10-23T03:08:24.366Z,0
2016-10-23T03:09:24.430Z,0
2016-10-23T03:10:24.480Z,0
2016-10-23T03:11:24.516Z,0
2016-10-23T03:12:24.573Z,0
2016-10-23T03:13:24.622Z,0
2016-10-23T03:14:24.694Z,0
2016-10-23T03:15:24.768Z,0
2016-10-23T03:16:25.088Z,0
2016-10-23T03:17:24.860Z,0
2016-10-23T03:18:24.928Z,0
2016-10-23T03:19:24.961Z,0
2016-10-23T03:20:25.035Z,0
2016-10-23T03:21:25.085Z,0
2016-10-23T03:22:25.127Z,0
2016-10-23T03:23:25.187Z,0
2016-10-23T03:24:25.246Z,0
2016-10-23T03:25:25.310Z,0
2016-10-23T03:26:25.405Z,0
2016-10-23T03:27:25.385Z,0
2016-10-23T03:28:25.480Z,0
2016-10-23T03:29:25.506Z,0
2016-10-23T03:30:25.555Z,0
2016-10-23T03:31:25.638Z,0
2016-10-23T03:32:25.693Z,0
2016-10-23T03:33:25.735Z,0
2016-10-23T03:34:25.786Z,0
2016-10-23T03:35:25.839Z,0
2016-10-23T03:36:25.883Z,0
2016-10-23T03:37:25.950Z,0
2016-10-23T03:38:25.996Z,0
2016-10-23T03:39:26.058Z,0
2016-10-23T03:40:26.100Z,0
2016-10-23T03:41:26.169Z,0
2016-10-23T03:42:26.275Z,0
2016-10-23T03:43:26.322Z,0
2016-10-23T03:44:26.328Z,0
2016-10-23T03:45:26.412Z,0
2016-10-23T03:46:26.776Z,0
2016-10-23T03:47:26.514Z,0
2016-10-23T03:48:26.542Z,0
2016-10-23T03:49:26.603Z,0
2016-10-23T03:50:26.690Z,0
2016-10-23T03:51:26.726Z,0
2016-10-23T03:52:26.768Z,0
2016-10-23T03:53:26.860Z,0
2016-10-23T03:54:26.890Z,0
2016-10-23T03:55:26.948Z,0
2016-10-23T03:56:26.994Z,0
2016-10-23T03:57:27.080Z,0
2016-10-23T03:58:27.395Z,0
2016-10-23T03:59:27.164Z,0
2016-10-23T04:00:27.223Z,0
2016-10-23T04:01:27.273Z,0
2016-10-23T04:02:27.329Z,0
2016-10-23T04:03:27.389Z,0
2016-10-23T04:04:27.774Z,0
2016-10-23T04:05:27.495Z,0
2016-10-23T04:06:27.568Z,0
2016-10-23T04:07:27.618Z,0
2016-10-23T04:08:27.678Z,0
2016-10-23T04:09:27.725Z,0
2016-10-23T04:10:27.749Z,0
2016-10-23T04:11:27.820Z,0
2016-10-23T04:12:27.874Z,0
2016-10-23T04:13:27.950Z,0
2016-10-23T04:14:27.973Z,0
2016-10-23T04:15:28.065Z,0
2016-10-23T04:16:28.100Z,0
2016-10-23T04:17:28.159Z,0
2016-10-23T04:18:28.205Z,0
2016-10-23T04:19:28.614Z,0
2016-10-23T04:20:28.321Z,0
2016-10-23T04:21:28.672Z,0
2016-10-23T04:22:28.419Z,0
2016-10-23T04:23:28.482Z,0
2016-10-23T04:24:28.561Z,0
2016-10-23T04:25:28.600Z,0
2016-10-23T04:26:28.665Z,0
2016-10-23T04:27:28.700Z,0
2016-10-23T04:28:28.749Z,0
2016-10-23T04:29:28.795Z,0
2016-10-23T04:30:29.162Z,0
2016-10-23T04:31:28.919Z,0
2016-10-23T04:32:28.984Z,0
2016-10-23T04:33:29.051Z,0
2016-10-23T04:34:29.098Z,0
2016-10-23T04:35:29.134Z,0
2016-10-23T04:36:29.200Z,0
2016-10-23T04:37:29.252Z,0
2016-10-23T04:38:29.305Z,0
2016-10-23T04:39:29.347Z,0
2016-10-23T04:40:29.427Z,0
2016-10-23T04:41:29.467Z,0
2016-10-23T04:42:29.527Z,0
2016-10-23T04:43:29.578Z,0
2016-10-23T04:44:29.932Z,0
2016-10-23T04:45:29.715Z,0
2016-10-23T04:46:29.761Z,0
2016-10-23T04:47:29.796Z,0
2016-10-23T04:48:29.853Z,0
2016-10-23T04:49:29.928Z,0
2016-10-23T04:50:30.287Z,0
2016-10-23T04:51:30.032Z,0
2016-10-23T04:52:30.081Z,0
2016-10-23T04:53:30.120Z,0
2016-10-23T04:54:30.230Z,0
2016-10-23T04:55:30.265Z,0
2016-10-23T04:56:30.585Z,0
2016-10-23T04:57:30.363Z,0
2016-10-23T04:58:30.424Z,0
2016-10-23T04:59:30.467Z,0
2016-10-23T05:00:30.539Z,0
2016-10-23T05:01:30.583Z,0
2016-10-23T05:02:30.631Z,0
2016-10-23T05:03:31.001Z,0
2016-10-23T05:04:30.755Z,0
2016-10-23T05:05:30.803Z,0
2016-10-23T05:06:30.848Z,0
2016-10-23T05:07:30.913Z,0
2016-10-23T05:08:30.959Z,0
2016-10-23T05:09:31.011Z,0
2016-10-23T05:10:31.088Z,0
2016-10-23T05:11:31.117Z,0
2016-10-23T05:12:31.166Z,0
2016-10-23T05:13:31.257Z,0
2016-10-23T05:14:31.296Z,0
2016-10-23T05:15:31.384Z,0
2016-10-23T05:16:31.387Z,0
2016-10-23T05:17:31.447Z,0
2016-10-23T05:18:31.508Z,0
2016-10-23T05:19:31.591Z,0
2016-10-23T05:20:31.629Z,0
2016-10-23T05:21:31.700Z,0
2016-10-23T05:22:31.737Z,0
2016-10-23T05:23:31.807Z,0
2016-10-23T05:24:31.850Z,0
2016-10-23T05:25:31.908Z,0
2016-10-23T05:26:32.007Z,4
2016-10-23T05:27:32.019Z,4
2016-10-23T05:28:32.070Z,4
2016-10-23T05:29:32.125Z,4
2016-10-23T05:30:32.173Z,0
2016-10-23T05:31:32.244Z,4
2016-10-23T05:32:32.329Z,4
2016-10-23T05:33:32.327Z,4
2016-10-23T05:34:32.386Z,4
2016-10-23T05:35:32.445Z,8
2016-10-23T05:36:32.512Z,4
2016-10-23T05:37:32.585Z,8
2016-10-23T05:38:32.618Z,8
2016-10-23T05:39:32.710Z,12
2016-10-23T05:40:32.731Z,8
2016-10-23T05:41:32.792Z,8
2016-10-23T05:42:32.899Z,12
2016-10-23T05:43:32.898Z,12
2016-10-23T05:44:32.951Z,20
2016-10-23T05:45:33.006Z,20
2016-10-23T05:46:33.046Z,20
2016-10-23T05:47:33.122Z,28
2016-10-23T05:48:33.175Z,28
2016-10-23T05:49:33.235Z,28
2016-10-23T05:50:33.275Z,28
2016-10-23T05:51:33.356Z,32
2016-10-23T05:52:33.411Z,36
2016-10-23T05:53:33.441Z,40
2016-10-23T05:54:33.492Z,36
2016-10-23T05:55:33.554Z,40
2016-10-23T05:56:33.776Z,44
2016-10-23T05:57:33.679Z,48
2016-10-23T05:58:33.723Z,52
2016-10-23T05:59:33.791Z,52
2016-10-23T06:00:33.823Z,60
2016-10-23T06:01:33.908Z,60
2016-10-23T06:02:33.944Z,60
2016-10-23T06:03:34.020Z,68
2016-10-23T06:04:34.078Z,68
2016-10-23T06:05:34.153Z,76
2016-10-23T06:06:34.183Z,84
2016-10-23T06:07:34.226Z,84
2016-10-23T06:08:34.293Z,88
2016-10-23T06:09:34.334Z,92
2016-10-23T06:10:34.399Z,100
2016-10-23T06:11:34.442Z,96
2016-10-23T06:12:34.670Z,96
2016-10-23T06:13:34.539Z,100
2016-10-23T06:14:34.630Z,104
2016-10-23T06:15:34.719Z,104
2016-10-23T06:16:34.711Z,108
2016-10-23T06:17:34.776Z,108
2016-10-23T06:18:34.851Z,104
2016-10-23T06:19:34.877Z,108
2016-10-23T06:20:34.957Z,112
2016-10-23T06:21:35.006Z,128
2016-10-23T06:22:35.058Z,136
2016-10-23T06:23:35.112Z,140
2016-10-23T06:24:35.164Z,160
2016-10-23T06:25:35.226Z,160
2016-10-23T06:26:35.262Z,164
2016-10-23T06:27:35.351Z,204
2016-10-23T06:28:35.381Z,236
2016-10-23T06:29:35.445Z,256
2016-10-23T06:30:35.482Z,332
2016-10-23T06:31:35.548Z,408
2016-10-23T06:32:35.596Z,744
2016-10-23T06:33:35.649Z,304
2016-10-23T06:34:35.713Z,284
2016-10-23T06:35:35.770Z,316
2016-10-23T06:36:35.827Z,392
2016-10-23T06:37:35.887Z,484
2016-10-23T06:38:35.926Z,912
2016-10-23T06:39:36.013Z,1164
2016-10-23T06:40:36.055Z,1316
2016-10-23T06:41:36.095Z,1416
2016-10-23T06:42:36.157Z,1496
2016-10-23T06:43:36.386Z,1384
2016-10-23T06:44:36.265Z,1464
2016-10-23T06:45:36.360Z,1512
2016-10-23T06:46:36.368Z,1468
2016-10-23T06:47:36.426Z,1460
2016-10-23T06:48:36.507Z,1500
2016-10-23T06:49:36.545Z,1404
2016-10-23T06:50:36.605Z,1492
2016-10-23T06:51:36.677Z,1540
2016-10-23T06:52:36.714Z,1672
2016-10-23T06:53:36.765Z,1664
2016-10-23T06:54:36.807Z,1720
2016-10-23T06:55:36.883Z,1844
2016-10-23T06:56:36.950Z,1712
2016-10-23T06:57:36.972Z,1856
2016-10-23T06:58:37.061Z,1808
2016-10-23T06:59:37.101Z,1588
2016-10-23T07:00:37.156Z,1368
2016-10-23T07:01:37.195Z,1512
2016-10-23T07:02:37.258Z,1692
2016-10-23T07:03:37.318Z,1652
2016-10-23T07:04:37.375Z,1368
2016-10-23T07:05:37.446Z,1332
2016-10-23T07:06:37.469Z,1432
2016-10-23T07:07:37.552Z,1176
2016-10-23T07:08:37.581Z,1336
2016-10-23T07:09:37.665Z,1640
2016-10-23T07:10:37.709Z,1528
2016-10-23T07:11:37.766Z,1072
2016-10-23T07:12:37.813Z,1128
2016-10-23T07:13:37.858Z,1368
2016-10-23T07:14:37.950Z,1320
2016-10-23T07:15:37.982Z,1424
2016-10-23T07:16:38.034Z,1592
2016-10-23T07:17:38.095Z,1748
2016-10-23T07:18:38.165Z,1296
2016-10-23T07:19:38.226Z,1144
2016-10-23T07:20:38.271Z,1024
2016-10-23T07:21:38.345Z,1244
2016-10-23T07:22:38.361Z,1532
2016-10-23T07:23:38.426Z,1628
2016-10-23T07:24:38.495Z,1668
2016-10-23T07:25:38.526Z,1740
2016-10-23T07:26:38.621Z,1832
2016-10-23T07:27:38.666Z,1964
2016-10-23T07:28:38.724Z,1820
2016-10-23T07:29:38.771Z,1816
2016-10-23T07:30:38.819Z,1960
2016-10-23T07:31:38.876Z,1764
2016-10-23T07:32:38.940Z,1828
2016-10-23T07:33:39.305Z,1812
2016-10-23T07:34:39.045Z,1928
2016-10-23T07:35:39.104Z,1660
2016-10-23T07:36:39.144Z,1920
2016-10-23T07:37:39.213Z,1996
2016-10-23T07:38:39.253Z,1964
2016-10-23T07:39:39.327Z,1964
2016-10-23T07:40:39.400Z,1804
2016-10-23T07:41:39.436Z,1356
2016-10-23T07:42:39.503Z,1396
2016-10-23T07:43:39.556Z,1472
2016-10-23T07:44:39.587Z,1900
2016-10-23T07:45:39.665Z,1768
2016-10-23T07:46:39.718Z,2016
2016-10-23T07:47:39.781Z,2040
2016-10-23T07:48:39.826Z,1948
2016-10-23T07:49:39.868Z,1588
2016-10-23T07:50:39.956Z,2252
2016-10-23T07:51:39.977Z,2444
2016-10-23T07:52:40.041Z,2492
2016-10-23T07:53:40.122Z,1976
2016-10-23T07:54:40.178Z,2096
2016-10-23T07:55:40.215Z,2416
2016-10-23T07:56:40.276Z,2428
2016-10-23T07:57:40.319Z,1856
2016-10-23T07:58:40.403Z,1476
2016-10-23T07:59:40.442Z,1644
2016-10-23T08:00:40.528Z,1864
2016-10-23T08:01:40.568Z,1820
2016-10-23T08:02:40.616Z,1748
2016-10-23T08:03:40.665Z,1492
2016-10-23T08:04:40.719Z,1440
2016-10-23T08:05:40.777Z,1772
2016-10-23T08:06:40.846Z,2428
2016-10-23T08:07:40.914Z,2476
2016-10-23T08:08:40.926Z,2204
2016-10-23T08:09:40.998Z,1976
2016-10-23T08:10:41.064Z,1736
2016-10-23T08:11:41.129Z,1672
2016-10-23T08:12:41.173Z,2028
2016-10-23T08:13:41.235Z,2172
2016-10-23T08:14:41.265Z,1908
2016-10-23T08:15:41.342Z,1972
2016-10-23T08:16:41.390Z,1692
2016-10-23T08:17:41.457Z,1908
2016-10-23T08:18:41.517Z,1948
2016-10-23T08:19:41.566Z,1960
2016-10-23T08:20:41.597Z,2028
2016-10-23T08:21:41.676Z,1976
2016-10-23T08:22:41.732Z,1920
2016-10-23T08:23:41.787Z,1912
2016-10-23T08:24:41.848Z,1724
2016-10-23T08:25:41.886Z,1644
2016-10-23T08:26:41.960Z,1632
2016-10-23T08:27:42.014Z,1584
2016-10-23T08:28:42.059Z,1748
2016-10-23T08:29:42.107Z,1820
2016-10-23T08:30:42.172Z,1900
2016-10-23T08:31:42.228Z,1944
2016-10-23T08:32:42.348Z,1996
2016-10-23T08:33:42.347Z,1980
2016-10-23T08:34:42.399Z,1988
2016-10-23T08:35:42.470Z,1988
2016-10-23T08:36:42.518Z,1988
2016-10-23T08:37:42.566Z,2024
2016-10-23T08:38:42.609Z,1996
2016-10-23T08:39:42.681Z,2012
2016-10-23T08:40:42.775Z,2044
2016-10-23T08:41:42.794Z,2192
2016-10-23T08:42:42.829Z,2116
2016-10-23T08:43:42.909Z,2176
2016-10-23T08:44:42.945Z,2272
2016-10-23T08:45:43.027Z,2388
2016-10-23T08:46:43.076Z,2336
2016-10-23T08:47:43.120Z,2296
2016-10-23T08:48:43.188Z,1976
2016-10-23T08:49:43.241Z,2244
2016-10-23T08:50:43.311Z,2344
2016-10-23T08:51:43.340Z,2216
2016-10-23T08:52:43.413Z,2288
2016-10-23T08:53:43.462Z,2200
2016-10-23T08:54:43.507Z,2088
2016-10-23T08:55:43.578Z,1912
2016-10-23T08:56:43.622Z,1872
2016-10-23T08:57:43.690Z,1932
2016-10-23T08:58:43.735Z,1752
2016-10-23T08:59:43.776Z,1932
2016-10-23T09:00:43.852Z,1896
2016-10-23T09:01:43.888Z,1956
2016-10-23T09:02:43.948Z,1900
2016-10-23T09:03:44.028Z,2092
2016-10-23T09:04:44.090Z,2232
2016-10-23T09:05:44.118Z,2216
2016-10-23T09:06:44.204Z,2192
2016-10-23T09:07:44.252Z,2196
2016-10-23T09:08:44.306Z,2288
2016-10-23T09:09:44.355Z,2348
2016-10-23T09:10:44.429Z,2400
2016-10-23T09:11:44.455Z,2448
2016-10-23T09:12:44.512Z,2416
2016-10-23T09:13:44.570Z,2424
2016-10-23T09:14:44.640Z,2428
2016-10-23T09:15:44.668Z,2512
2016-10-23T09:16:44.747Z,2400
2016-10-23T09:17:44.801Z,2620
2016-10-23T09:18:44.860Z,2564
2016-10-23T09:19:44.903Z,2164
2016-10-23T09:20:44.952Z,2240
2016-10-23T09:21:45.041Z,2036
2016-10-23T09:22:45.076Z,2468
2016-10-23T09:23:45.132Z,2872
2016-10-23T09:24:45.170Z,2952
2016-10-23T09:25:45.257Z,3208
2016-10-23T09:26:45.302Z,3272
2016-10-23T09:27:45.355Z,3192
2016-10-23T09:28:45.426Z,3100
2016-10-23T09:29:45.511Z,3092
2016-10-23T09:30:45.520Z,3028
2016-10-23T09:31:45.594Z,3032
2016-10-23T09:32:45.622Z,3124
2016-10-23T09:33:45.669Z,3280
2016-10-23T09:34:45.747Z,3332
2016-10-23T09:35:45.811Z,3492
2016-10-23T09:36:45.857Z,3216
2016-10-23T09:37:45.917Z,3264
2016-10-23T09:38:45.955Z,3356
2016-10-23T09:39:46.011Z,3372
2016-10-23T09:40:46.078Z,3348
2016-10-23T09:41:46.137Z,3376
2016-10-23T09:42:46.189Z,3348
2016-10-23T09:43:46.238Z,3256
2016-10-23T09:44:46.320Z,3208
2016-10-23T09:45:46.349Z,3140
2016-10-23T09:46:46.428Z,3172
2016-10-23T09:47:46.472Z,3272
2016-10-23T09:48:46.548Z,3384
2016-10-23T09:49:46.568Z,3404
2016-10-23T09:50:46.662Z,3336
2016-10-23T09:51:46.686Z,3328
2016-10-23T09:52:46.753Z,3376
2016-10-23T09:53:46.847Z,3432
2016-10-23T09:54:46.866Z,3424
2016-10-23T09:55:46.917Z,3560
2016-10-23T09:56:46.974Z,3532
2016-10-23T09:57:47.025Z,3664
2016-10-23T09:58:47.080Z,3888
2016-10-23T09:59:47.141Z,3888
2016-10-23T10:00:47.245Z,3816
2016-10-23T10:01:47.268Z,3616
2016-10-23T10:02:47.300Z,3680
2016-10-23T10:03:47.368Z,3520
2016-10-23T10:04:47.417Z,3256
2016-10-23T10:05:47.487Z,3284
2016-10-23T10:06:47.533Z,3556
2016-10-23T10:07:47.595Z,4064
2016-10-23T10:08:47.643Z,4540
2016-10-23T10:09:47.700Z,4540
2016-10-23T10:10:47.756Z,4376
2016-10-23T10:11:47.815Z,4180
2016-10-23T10:12:47.852Z,4580
2016-10-23T10:13:47.899Z,4196
2016-10-23T10:14:47.984Z,4224
2016-10-23T10:15:48.036Z,4712
2016-10-23T10:16:48.093Z,4708
2016-10-23T10:17:48.138Z,4908
2016-10-23T10:18:48.180Z,4880
2016-10-23T10:19:48.253Z,4260
2016-10-23T10:20:48.322Z,4212
2016-10-23T10:21:48.380Z,4328
2016-10-23T10:22:48.417Z,4412
2016-10-23T10:23:48.466Z,4720
2016-10-23T10:24:48.534Z,4480
2016-10-23T10:25:48.592Z,4452
2016-10-23T10:26:48.644Z,3996
2016-10-23T10:27:48.700Z,3760
2016-10-23T10:28:48.799Z,4204
2016-10-23T10:29:48.803Z,4364
2016-10-23T10:30:48.862Z,4624
2016-10-23T10:31:48.919Z,4280
2016-10-23T10:32:48.955Z,3580
2016-10-23T10:33:49.031Z,3796
2016-10-23T10:34:49.102Z,3568
2016-10-23T10:35:49.150Z,4736
2016-10-23T10:36:49.250Z,4392
2016-10-23T10:37:49.270Z,4024
2016-10-23T10:38:49.312Z,3672
2016-10-23T10:39:49.369Z,3556
2016-10-23T10:40:49.428Z,4624
2016-10-23T10:41:49.458Z,4568
2016-10-23T10:42:49.546Z,4128
2016-10-23T10:43:49.604Z,4432
2016-10-23T10:44:49.624Z,3732
2016-10-23T10:45:49.688Z,4156
2016-10-23T10:46:49.733Z,4876
2016-10-23T10:47:49.811Z,5452
2016-10-23T10:48:49.879Z,5976
2016-10-23T10:49:49.926Z,6504
2016-10-23T10:50:49.991Z,7232
2016-10-23T10:51:50.014Z,8392
2016-10-23T10:52:50.087Z,15756
2016-10-23T10:53:50.134Z,43424
2016-10-23T10:54:50.184Z,35136
2016-10-23T10:55:50.250Z,10668
2016-10-23T10:56:50.295Z,15660
2016-10-23T10:57:50.387Z,21184
2016-10-23T10:58:50.423Z,30336
2016-10-23T10:59:50.482Z,21472
2016-10-23T11:00:50.550Z,8280
2016-10-23T11:01:50.594Z,7352
2016-10-23T11:02:50.627Z,6040
2016-10-23T11:03:50.711Z,8492
2016-10-23T11:04:50.750Z,7216
2016-10-23T11:05:50.812Z,7096
2016-10-23T11:06:50.874Z,5740
2016-10-23T11:07:50.922Z,7680
2016-10-23T11:08:50.992Z,16992
2016-10-23T11:09:51.033Z,24704
2016-10-23T11:10:51.084Z,25568
2016-10-23T11:11:51.149Z,17132
2016-10-23T11:12:51.217Z,10180
2016-10-23T11:13:51.256Z,8244
2016-10-23T11:14:51.336Z,5560
2016-10-23T11:15:51.347Z,5480
2016-10-23T11:16:51.408Z,3576
2016-10-23T11:17:51.479Z,3460
2016-10-23T11:18:51.575Z,3372
2016-10-23T11:19:51.583Z,2840
2016-10-23T11:20:51.630Z,3016
2016-10-23T11:21:51.697Z,2864
2016-10-23T11:22:51.740Z,3384
2016-10-23T11:23:51.791Z,2872
2016-10-23T11:24:51.874Z,2760
2016-10-23T11:25:51.940Z,2320
2016-10-23T11:26:51.992Z,1736
2016-10-23T11:27:52.032Z,2468
2016-10-23T11:28:52.081Z,6180
2016-10-23T11:29:52.124Z,6856
2016-10-23T11:30:52.212Z,4512
2016-10-23T11:31:52.263Z,2648
2016-10-23T11:32:52.353Z,2408
2016-10-23T11:33:52.365Z,2764
2016-10-23T11:34:52.420Z,3804
2016-10-23T11:35:52.488Z,5260
2016-10-23T11:36:52.830Z,5900
2016-10-23T11:37:52.568Z,15456
2016-10-23T11:38:52.624Z,5700
2016-10-23T11:39:52.714Z,4156
2016-10-23T11:40:52.739Z,4716
2016-10-23T11:41:52.802Z,4300
2016-10-23T11:42:52.858Z,5652
2016-10-23T11:43:52.916Z,9600
2016-10-23T11:44:52.984Z,32960
2016-10-23T11:45:53.033Z,11040
2016-10-23T11:46:53.084Z,4492
2016-10-23T11:47:53.144Z,3768
2016-10-23T11:48:53.186Z,4804
2016-10-23T11:49:53.248Z,4060
2016-10-23T11:50:53.290Z,1388
2016-10-23T11:51:53.358Z,1252
2016-10-23T11:52:53.411Z,1260
2016-10-23T11:53:53.479Z,968
2016-10-23T11:54:53.509Z,696
2016-10-23T11:55:53.581Z,716
2016-10-23T11:56:53.630Z,752
2016-10-23T11:57:53.679Z,804
2016-10-23T11:58:53.756Z,768
2016-10-23T11:59:53.803Z,708
2016-10-23T12:00:53.834Z,748
2016-10-23T12:01:53.907Z,856
2016-10-23T12:02:53.946Z,932
2016-10-23T12:03:54.025Z,868
2016-10-23T12:04:54.071Z,772
2016-10-23T12:05:54.135Z,828
2016-10-23T12:06:54.174Z,928
2016-10-23T12:07:54.243Z,912
2016-10-23T12:08:54.294Z,880
2016-10-23T12:09:54.355Z,824
2016-10-23T12:10:54.401Z,740
2016-10-23T12:11:54.469Z,680
2016-10-23T12:12:54.513Z,704
2016-10-23T12:13:54.581Z,692
2016-10-23T12:14:54.619Z,660
2016-10-23T12:15:54.667Z,612
2016-10-23T12:16:54.738Z,628
2016-10-23T12:17:54.811Z,696
2016-10-23T12:18:54.869Z,740
2016-10-23T12:19:54.890Z,792
2016-10-23T12:20:54.958Z,872
2016-10-23T12:21:55.020Z,888
2016-10-23T12:22:55.091Z,836
2016-10-23T12:23:55.130Z,764
2016-10-23T12:24:55.206Z,744
2016-10-23T12:25:55.249Z,768
2016-10-23T12:26:55.304Z,828
2016-10-23T12:27:55.363Z,896
2016-10-23T12:28:55.414Z,992
2016-10-23T12:29:55.464Z,1236
2016-10-23T12:30:55.530Z,1416
2016-10-23T12:31:55.578Z,1228
2016-10-23T12:32:55.632Z,1164
2016-10-23T12:33:55.715Z,1056
2016-10-23T12:34:55.738Z,940
2016-10-23T12:35:55.801Z,936
2016-10-23T12:36:55.841Z,880
2016-10-23T12:37:55.918Z,744
2016-10-23T12:38:55.969Z,720
2016-10-23T12:39:56.037Z,676
2016-10-23T12:40:56.092Z,664
2016-10-23T12:41:56.124Z,776
2016-10-23T12:42:56.192Z,840
2016-10-23T12:43:56.255Z,880
2016-10-23T12:44:56.289Z,952
2016-10-23T12:45:56.371Z,960
2016-10-23T12:46:56.409Z,972
2016-10-23T12:47:56.472Z,1020
2016-10-23T12:48:56.512Z,1036
2016-10-23T12:49:56.586Z,968
2016-10-23T12:50:56.651Z,948
2016-10-23T12:51:56.681Z,932
2016-10-23T12:52:56.758Z,908
2016-10-23T12:53:56.797Z,904
2016-10-23T12:54:56.861Z,900
2016-10-23T12:55:56.916Z,876
2016-10-23T12:56:56.959Z,844
2016-10-23T12:57:57.028Z,772
2016-10-23T12:58:57.071Z,728
2016-10-23T12:59:57.138Z,704
2016-10-23T13:00:57.211Z,660
2016-10-23T13:01:57.250Z,628
2016-10-23T13:02:57.315Z,600
2016-10-23T13:03:57.364Z,544
2016-10-23T13:04:57.404Z,488
2016-10-23T13:05:57.479Z,500
2016-10-23T13:06:57.528Z,500
2016-10-23T13:07:57.577Z,492
2016-10-23T13:08:57.645Z,516
2016-10-23T13:09:57.701Z,568
2016-10-23T13:10:57.775Z,600
2016-10-23T13:11:57.807Z,600
2016-10-23T13:12:57.879Z,584
2016-10-23T13:13:57.907Z,548
2016-10-23T13:14:57.977Z,504
2016-10-23T13:15:58.048Z,460
2016-10-23T13:16:58.108Z,448
2016-10-23T13:17:58.159Z,456
2016-10-23T13:18:58.189Z,440
2016-10-23T13:19:58.259Z,392
2016-10-23T13:20:58.299Z,328
2016-10-23T13:21:58.386Z,300
2016-10-23T13:22:58.429Z,312
2016-10-23T13:23:58.487Z,328
2016-10-23T13:24:58.564Z,332
2016-10-23T13:25:58.595Z,336
2016-10-23T13:26:58.646Z,336
2016-10-23T13:27:58.702Z,340
2016-10-23T13:28:58.754Z,344
2016-10-23T13:29:58.798Z,368
2016-10-23T13:30:58.870Z,404
2016-10-23T13:31:58.949Z,476
2016-10-23T13:32:58.982Z,572
2016-10-23T13:33:59.020Z,676
2016-10-23T13:34:59.387Z,792
2016-10-23T13:35:59.158Z,868
2016-10-23T13:36:59.203Z,948
2016-10-23T13:37:59.287Z,1008
2016-10-23T13:38:59.442Z,1056
2016-10-23T13:39:59.380Z,1112
2016-10-23T13:40:59.448Z,1244
2016-10-23T13:41:59.497Z,1656
2016-10-23T13:42:59.525Z,2040
2016-10-23T13:43:59.658Z,2364
2016-10-23T13:44:59.640Z,2160
2016-10-23T13:45:59.709Z,2352
2016-10-23T13:46:59.768Z,2032
2016-10-23T13:47:59.823Z,3072
2016-10-23T13:48:59.879Z,5052
2016-10-23T13:49:59.938Z,2524
2016-10-23T13:50:59.969Z,2832
2016-10-23T13:52:00.034Z,2788
2016-10-23T13:53:00.090Z,2160
2016-10-23T13:54:00.176Z,1892
2016-10-23T13:55:00.209Z,1948
2016-10-23T13:56:00.279Z,1668
2016-10-23T13:57:00.322Z,1376
2016-10-23T13:58:00.380Z,1172
2016-10-23T13:59:00.450Z,972